Portada
METAR-TAF:

METAR-TAF

Aeroports :

Clemson, Carolina del Sud, Estats Units d'Amèrica

latitud: 34-40-20N, longitud: 082-52-53W, altitud: 272 m

Observació

L'informe es va fer fa 28 minuts, a les 14:54 UTC
Vent 6 kt del Est/Nord-Est
Temperatura 6°C
Humitat 87%
Pressió 1022 hPa
Visibilitat: 16.1 km
Escasses núvols a una alçada de 8000 ft
Cel cobert a una alçada de 9500 ft
pluja

METAR: KCEU 151454Z AUTO 07006KT 10SM -RA FEW080 OVC095 06/04 A3019 RMK AO2 SLP224 P0002 60008 T00610044 51007

Hora: 10:22 (15:22 UTC)


TAF: manca

Observacions i pronòstics meteorològics de més de 4000 aeroports (METAR i TAF).

Les estacions disponibles són els punts grocs i vermells al mapa.

Posi el ratolí al punt desitjat per veure el nom de l'estació.

Feu clic per veure les observacions i els pronòstics meteorològics.

Per canviar el mapa: feu clic els botons verds amb una creu de color negre per apropar; al botó verd amb un guió per allunyar la imatge; o en les fletxes verdes per a mapes adjacents.


METAR-TAF: